Time;durP1;ratioP1;P1;durP2;ratioP2;P2;SDS_P1;SDS_P2;PMS_P1;PMS_P2;Temp;Humidity;BMP_temperature;BMP_pressure;BME280_temperature;BME280_humidity;BME280_pressure;Samples;Min_cycle;Max_cycle;Signal;HPM_P1;HPM_P2
2022/10/04 06:32:23;;;;;;;5.82;3.78;;;8.10;99.90;;;;;;11818882;23;19923;-77
2022/10/04 06:37:57;;;;;;;11.73;3.92;;;8.20;99.90;;;;;;10168888;29;20060;-77
2022/10/04 06:43:39;;;;;;;7.05;3.75;;;8.30;99.90;;;;;;10174675;29;20044;-78
2022/10/04 06:49:09;;;;;;;7.22;4.13;;;8.30;99.90;;;;;;10160254;29;20478;-76
2022/10/04 06:54:33;;;;;;;5.93;3.83;;;8.10;99.90;;;;;;10162727;29;20094;-75
2022/10/04 07:00:05;;;;;;;6.45;4.10;;;8.20;99.90;;;;;;10176214;29;20108;-77
2022/10/04 07:05:19;;;;;;;6.82;4.13;;;8.20;99.90;;;;;;10176460;29;20143;-75
2022/10/04 07:10:34;;;;;;;5.68;4.15;;;8.30;99.90;;;;;;10174863;29;20461;-77
2022/10/04 07:15:47;;;;;;;5.47;3.95;;;8.40;99.90;;;;;;10175697;29;20059;-75
2022/10/04 07:20:52;;;;;;;7.45;4.20;;;8.50;99.90;;;;;;10175380;29;20477;-77
2022/10/04 07:26:01;;;;;;;6.35;4.15;;;8.70;99.90;;;;;;10175849;29;20383;-78
2022/10/04 07:31:11;;;;;;;7.65;4.95;;;8.80;99.90;;;;;;10174909;29;20119;-77
2022/10/04 07:36:19;;;;;;;7.65;5.10;;;8.90;99.90;;;;;;10175036;29;20107;-77
2022/10/04 07:41:29;;;;;;;6.80;4.63;;;9.00;99.90;;;;;;10174903;29;20082;-75
2022/10/04 07:46:45;;;;;;;8.57;4.70;;;9.20;99.90;;;;;;10174581;29;20080;-78
2022/10/04 07:52:14;;;;;;;7.78;5.28;;;9.30;99.90;;;;;;10174801;29;20094;-76
2022/10/04 07:57:27;;;;;;;8.18;4.65;;;8.90;99.90;;;;;;10174721;29;20052;-75
2022/10/04 08:02:42;;;;;;;6.93;4.25;;;9.10;99.90;;;;;;10174474;29;20087;-75
2022/10/04 08:08:07;;;;;;;6.85;4.80;;;9.40;99.90;;;;;;10160028;29;20056;-75
2022/10/04 08:13:22;;;;;;;8.43;4.93;;;9.20;99.90;;;;;;10130648;29;20060;-75
2022/10/04 08:18:43;;;;;;;8.65;5.22;;;9.40;99.90;;;;;;10166372;29;20080;-76
2022/10/04 08:24:05;;;;;;;7.78;5.13;;;9.70;99.90;;;;;;10171857;29;20102;-77
2022/10/04 08:29:46;;;;;;;6.53;4.88;;;9.90;99.90;;;;;;10176995;29;20094;-76
2022/10/04 08:35:20;;;;;;;9.73;5.45;;;10.00;99.90;;;;;;10177059;29;20059;-76
2022/10/04 08:41:12;;;;;;;8.45;5.40;;;10.20;99.90;;;;;;10168065;29;20095;-79
2022/10/04 08:46:59;;;;;;;7.18;5.53;;;10.40;99.90;;;;;;10157221;29;20139;-78
2022/10/04 08:53:03;;;;;;;7.85;5.45;;;10.40;99.90;;;;;;10162039;29;20451;-77
2022/10/04 08:58:15;;;;;;;9.45;5.47;;;10.50;99.90;;;;;;10177462;29;20127;-75
2022/10/04 09:04:12;;;;;;;10.73;6.10;;;10.50;99.90;;;;;;10176424;29;20514;-75
2022/10/04 09:09:55;;;;;;;;;;;10.60;99.90;;;;;;10176490;29;20490;-77
2022/10/04 09:15:51;;;;;;;8.25;5.05;;;10.70;99.90;;;;;;10118650;29;19927;-77
2022/10/04 09:21:08;;;;;;;10.83;6.17;;;10.90;99.90;;;;;;10192277;29;20076;-73
2022/10/04 09:26:22;;;;;;;10.50;6.30;;;11.00;99.90;;;;;;10181572;29;20052;-77
2022/10/04 09:32:11;;;;;;;9.77;6.13;;;11.10;99.90;;;;;;10174782;29;20064;-75
2022/10/04 09:37:47;;;;;;;9.98;6.63;;;11.10;99.90;;;;;;10170965;29;20094;-75
2022/10/04 09:43:22;;;;;;;11.02;7.15;;;11.40;99.90;;;;;;10170969;29;20079;-77
2022/10/04 09:48:29;;;;;;;10.10;6.20;;;11.40;99.90;;;;;;10174612;29;20076;-76
2022/10/04 09:54:19;;;;;;;9.30;5.63;;;11.60;99.90;;;;;;10174107;29;20532;-76
2022/10/04 09:59:59;;;;;;;13.32;5.60;;;11.70;99.90;;;;;;10174423;29;20099;-75
2022/10/04 10:05:26;;;;;;;10.35;5.63;;;11.80;99.90;;;;;;10173508;29;20083;-75
2022/10/04 10:16:10;;;;;;;8.43;4.75;;;12.30;99.90;;;;;;10174022;29;20048;-75
2022/10/04 10:21:27;;;;;;;7.75;5.00;;;12.40;99.90;;;;;;10172239;29;20589;-75
2022/10/04 10:26:45;;;;;;;7.72;4.90;;;12.40;99.90;;;;;;10173214;29;20123;-76
2022/10/04 10:32:03;;;;;;;9.70;4.65;;;12.50;99.90;;;;;;10174389;29;20142;-76
2022/10/04 10:37:10;;;;;;;9.98;4.60;;;12.70;99.90;;;;;;10172488;29;20116;-75
2022/10/04 10:42:31;;;;;;;9.95;4.10;;;12.80;99.90;;;;;;10173112;29;20462;-75
2022/10/04 10:47:44;;;;;;;11.32;5.22;;;12.90;99.90;;;;;;10200913;29;20056;-75
2022/10/04 10:53:20;;;;;;;11.25;4.55;;;12.70;99.90;;;;;;10223845;29;20059;-79
2022/10/04 10:59:17;;;;;;;23.73;13.38;;;12.90;99.90;;;;;;10224173;29;20051;-77
2022/10/04 11:04:53;;;;;;;10.65;5.93;;;13.00;99.90;;;;;;10087367;29;20056;-75
2022/10/04 11:10:28;;;;;;;10.48;4.93;;;13.10;99.90;;;;;;10195180;29;20092;-78
2022/10/04 11:16:10;;;;;;;10.32;4.47;;;13.30;99.90;;;;;;10215421;29;20067;-77
2022/10/04 11:22:09;;;;;;;9.02;3.97;;;13.40;99.90;;;;;;10217010;29;20083;-78
2022/10/04 11:27:27;;;;;;;8.48;4.38;;;13.70;99.90;;;;;;10212363;29;20059;-80
2022/10/04 11:33:38;;;;;;;8.73;4.53;;;13.70;99.90;;;;;;10176922;29;20217;-76
2022/10/04 11:39:01;;;;;;;11.13;5.07;;;13.90;99.90;;;;;;10214273;29;20055;-76
2022/10/04 11:44:51;;;;;;;9.52;4.35;;;14.10;99.90;;;;;;10217806;29;20052;-77
2022/10/04 11:50:10;;;;;;;8.93;4.13;;;14.30;99.90;;;;;;10189298;29;20062;-76
2022/10/04 11:55:52;;;;;;;7.38;3.70;;;14.70;99.90;;;;;;10220525;29;20043;-78
2022/10/04 12:01:37;;;;;;;10.40;4.05;;;14.90;99.90;;;;;;10220944;29;20052;-78
2022/10/04 12:06:59;;;;;;;9.90;3.33;;;15.00;99.90;;;;;;10222218;29;20069;-78
2022/10/04 12:12:36;;;;;;;7.68;3.83;;;15.40;99.90;;;;;;10219642;29;20128;-78
2022/10/04 12:18:18;;;;;;;8.43;3.42;;;15.60;99.90;;;;;;10223401;29;20072;-78
2022/10/04 12:23:55;;;;;;;10.05;4.03;;;15.90;99.90;;;;;;10154941;29;20059;-77
2022/10/04 12:29:19;;;;;;;10.23;3.97;;;16.30;99.90;;;;;;10177777;29;20059;-77
2022/10/04 12:34:28;;;;;;;8.18;3.88;;;16.60;99.90;;;;;;10210244;29;20040;-78
2022/10/04 12:39:47;;;;;;;;;;;16.80;99.90;;;;;;10219298;29;20056;-78
2022/10/04 12:45:12;;;;;;;7.07;3.10;;;17.20;99.90;;;;;;10218569;29;19911;-78
2022/10/04 12:50:29;;;;;;;9.10;3.10;;;17.50;99.90;;;;;;10216916;29;20052;-78
2022/10/04 12:55:54;;;;;;;8.85;3.00;;;17.60;99.90;;;;;;10216388;29;20097;-79
2022/10/04 13:01:12;;;;;;;6.57;2.83;;;17.80;99.90;;;;;;10213148;29;20119;-79
2022/10/04 13:06:22;;;;;;;7.28;3.28;;;18.20;99.90;;;;;;10216729;29;20048;-78
2022/10/04 13:11:52;;;;;;;8.10;3.67;;;18.60;99.50;;;;;;10220693;29;20071;-78
2022/10/04 13:17:02;;;;;;;5.72;3.30;;;19.00;99.00;;;;;;10207585;29;20051;-77
2022/10/04 13:22:29;;;;;;;6.20;3.38;;;19.40;98.50;;;;;;10211816;29;20048;-76
2022/10/04 13:27:46;;;;;;;9.50;3.13;;;20.00;98.10;;;;;;10225496;29;20036;-77
2022/10/04 13:33:01;;;;;;;6.57;2.85;;;20.50;96.20;;;;;;10223192;29;20059;-76
2022/10/04 13:38:27;;;;;;;5.55;2.40;;;21.00;96.00;;;;;;10223710;29;20036;-77
2022/10/04 13:44:01;;;;;;;7.38;2.50;;;21.70;94.60;;;;;;10211151;29;20384;-78
2022/10/04 13:49:24;;;;;;;7.35;2.42;;;22.40;93.50;;;;;;10206478;29;20059;-76
2022/10/04 14:00:04;;;;;;;5.35;2.15;;;24.40;86.70;;;;;;10165298;29;20048;-79
2022/10/04 14:06:02;;;;;;;5.75;2.20;;;25.60;82.30;;;;;;10168875;29;20458;-76
2022/10/04 14:11:37;;;;;;;4.22;1.90;;;26.50;74.20;;;;;;10214161;29;20044;-76
2022/10/04 14:17:41;;;;;;;4.47;1.70;;;27.50;71.10;;;;;;10217965;29;20056;-76
2022/10/04 14:23:12;;;;;;;5.10;2.00;;;28.40;67.30;;;;;;10176075;29;20303;-79
2022/10/04 14:29:06;;;;;;;4.57;1.80;;;29.60;61.30;;;;;;10221776;29;20032;-81
2022/10/04 14:34:56;;;;;;;4.75;1.80;;;30.80;58.00;;;;;;10207683;29;20048;-76
2022/10/04 14:40:26;;;;;;;5.38;1.92;;;32.50;54.40;;;;;;10178309;29;20056;-77
2022/10/04 14:45:39;;;;;;;4.13;1.67;;;34.30;51.10;;;;;;10184214;29;20055;-77
2022/10/04 14:51:05;;;;;;;5.70;1.70;;;35.80;48.50;;;;;;10180602;29;20708;-76
2022/10/04 14:56:26;;;;;;;4.25;1.70;;;35.40;47.80;;;;;;10195197;29;20052;-77
2022/10/04 15:01:28;;;;;;;6.25;2.05;;;36.00;46.10;;;;;;10197980;29;20052;-76
